sensor_id;sensor_type;location;lat;lon;timestamp;pressure;altitude;pressure_sealevel;temperature;humidity
65131;BME280;51709;54.912;8.316;2023-02-12T00:03:51;103427.63;;;6.43;87.50
65131;BME280;51709;54.912;8.316;2023-02-12T00:09:12;103438.00;;;6.47;87.35
65131;BME280;51709;54.912;8.316;2023-02-12T00:14:36;103438.19;;;6.52;87.20
65131;BME280;51709;54.912;8.316;2023-02-12T00:19:58;103445.06;;;6.55;87.15
65131;BME280;51709;54.912;8.316;2023-02-12T00:25:19;103440.91;;;6.57;87.34
65131;BME280;51709;54.912;8.316;2023-02-12T00:30:40;103438.22;;;6.54;87.14
65131;BME280;51709;54.912;8.316;2023-02-12T00:36:01;103445.03;;;6.53;87.23
65131;BME280;51709;54.912;8.316;2023-02-12T00:41:22;103451.19;;;6.58;87.21
65131;BME280;51709;54.912;8.316;2023-02-12T00:46:43;103451.09;;;6.57;87.16
65131;BME280;51709;54.912;8.316;2023-02-12T00:52:04;103452.84;;;6.58;87.18
65131;BME280;51709;54.912;8.316;2023-02-12T00:57:25;103456.38;;;6.61;87.17
65131;BME280;51709;54.912;8.316;2023-02-12T01:02:46;103475.94;;;6.61;87.27
65131;BME280;51709;54.912;8.316;2023-02-12T01:08:07;103474.25;;;6.61;87.13
65131;BME280;51709;54.912;8.316;2023-02-12T01:13:28;103471.50;;;6.57;87.21
65131;BME280;51709;54.912;8.316;2023-02-12T01:18:51;103477.50;;;6.57;87.20
65131;BME280;51709;54.912;8.316;2023-02-12T01:24:15;103461.31;;;6.57;87.28
65131;BME280;51709;54.912;8.316;2023-02-12T01:29:36;103471.50;;;6.57;87.45
65131;BME280;51709;54.912;8.316;2023-02-12T01:34:57;103480.91;;;6.58;87.64
65131;BME280;51709;54.912;8.316;2023-02-12T01:40:18;103482.72;;;6.60;87.74
65131;BME280;51709;54.912;8.316;2023-02-12T01:45:50;103482.53;;;6.56;87.67
65131;BME280;51709;54.912;8.316;2023-02-12T01:51:16;103477.59;;;6.60;87.42
65131;BME280;51709;54.912;8.316;2023-02-12T01:56:39;103475.13;;;6.62;87.30
65131;BME280;51709;54.912;8.316;2023-02-12T02:02:00;103458.88;;;6.60;87.42
65131;BME280;51709;54.912;8.316;2023-02-12T02:07:24;103466.72;;;6.65;87.42
65131;BME280;51709;54.912;8.316;2023-02-12T02:12:45;103465.84;;;6.64;87.53
65131;BME280;51709;54.912;8.316;2023-02-12T02:18:35;103463.53;;;6.70;87.40
65131;BME280;51709;54.912;8.316;2023-02-12T02:24:19;103464.50;;;6.74;87.31
65131;BME280;51709;54.912;8.316;2023-02-12T02:30:06;103477.03;;;6.68;87.35
65131;BME280;51709;54.912;8.316;2023-02-12T02:35:37;103480.75;;;6.76;87.12
65131;BME280;51709;54.912;8.316;2023-02-12T02:41:06;103486.53;;;6.72;87.28
65131;BME280;51709;54.912;8.316;2023-02-12T02:46:43;103475.59;;;6.52;87.79
65131;BME280;51709;54.912;8.316;2023-02-12T02:52:13;103477.06;;;6.46;87.86
65131;BME280;51709;54.912;8.316;2023-02-12T02:57:49;103468.28;;;6.38;88.02
65131;BME280;51709;54.912;8.316;2023-02-12T03:08:55;103475.16;;;6.41;87.88
65131;BME280;51709;54.912;8.316;2023-02-12T03:14:27;103473.47;;;6.41;87.79
65131;BME280;51709;54.912;8.316;2023-02-12T03:19:57;103490.41;;;6.39;87.54
65131;BME280;51709;54.912;8.316;2023-02-12T03:25:24;103486.44;;;6.46;87.49
65131;BME280;51709;54.912;8.316;2023-02-12T03:36:37;103495.06;;;6.50;87.22
65131;BME280;51709;54.912;8.316;2023-02-12T03:42:07;103501.03;;;6.50;87.10
65131;BME280;51709;54.912;8.316;2023-02-12T03:47:37;103503.69;;;6.53;87.04
65131;BME280;51709;54.912;8.316;2023-02-12T03:53:01;103500.38;;;6.56;86.92
65131;BME280;51709;54.912;8.316;2023-02-12T03:58:24;103497.72;;;6.53;87.04
65131;BME280;51709;54.912;8.316;2023-02-12T04:03:46;103488.41;;;6.53;87.16
65131;BME280;51709;54.912;8.316;2023-02-12T04:09:08;103487.63;;;6.56;87.13
65131;BME280;51709;54.912;8.316;2023-02-12T04:14:36;103488.53;;;6.56;87.11
65131;BME280;51709;54.912;8.316;2023-02-12T04:20:27;103494.44;;;6.55;87.10
65131;BME280;51709;54.912;8.316;2023-02-12T04:26:04;103497.84;;;6.56;87.26
65131;BME280;51709;54.912;8.316;2023-02-12T04:36:58;103499.66;;;6.58;87.53
65131;BME280;51709;54.912;8.316;2023-02-12T04:42:20;103491.81;;;6.54;87.48
65131;BME280;51709;54.912;8.316;2023-02-12T04:47:42;103494.56;;;6.58;87.40
65131;BME280;51709;54.912;8.316;2023-02-12T04:53:02;103500.50;;;6.59;87.31
65131;BME280;51709;54.912;8.316;2023-02-12T04:58:23;103502.94;;;6.56;87.36
65131;BME280;51709;54.912;8.316;2023-02-12T05:03:44;103500.22;;;6.51;87.63
65131;BME280;51709;54.912;8.316;2023-02-12T05:09:06;103501.72;;;6.46;87.70
65131;BME280;51709;54.912;8.316;2023-02-12T05:14:27;103505.78;;;6.41;87.99
65131;BME280;51709;54.912;8.316;2023-02-12T05:19:47;103493.88;;;6.41;87.87
65131;BME280;51709;54.912;8.316;2023-02-12T05:25:08;103485.41;;;6.42;87.96
65131;BME280;51709;54.912;8.316;2023-02-12T05:30:29;103496.41;;;6.41;87.89
65131;BME280;51709;54.912;8.316;2023-02-12T05:35:49;103490.81;;;6.50;87.53
65131;BME280;51709;54.912;8.316;2023-02-12T05:41:17;103495.63;;;6.42;87.88
65131;BME280;51709;54.912;8.316;2023-02-12T05:46:38;103498.88;;;6.38;87.88
65131;BME280;51709;54.912;8.316;2023-02-12T05:51:59;103499.50;;;6.32;87.87
65131;BME280;51709;54.912;8.316;2023-02-12T05:57:23;103505.31;;;6.30;87.99
65131;BME280;51709;54.912;8.316;2023-02-12T06:02:43;103509.41;;;6.25;88.04
65131;BME280;51709;54.912;8.316;2023-02-12T06:08:04;103509.84;;;6.14;88.21
65131;BME280;51709;54.912;8.316;2023-02-12T06:13:25;103516.53;;;6.12;87.80
65131;BME280;51709;54.912;8.316;2023-02-12T06:18:46;103521.50;;;6.09;88.16
65131;BME280;51709;54.912;8.316;2023-02-12T06:24:07;103523.06;;;6.06;88.08
65131;BME280;51709;54.912;8.316;2023-02-12T06:29:27;103532.31;;;6.04;88.07
65131;BME280;51709;54.912;8.316;2023-02-12T06:34:48;103538.50;;;6.09;87.88
65131;BME280;51709;54.912;8.316;2023-02-12T06:40:09;103540.09;;;6.07;87.96
65131;BME280;51709;54.912;8.316;2023-02-12T06:45:29;103534.13;;;6.06;87.90
65131;BME280;51709;54.912;8.316;2023-02-12T06:50:50;103539.13;;;6.03;87.92
65131;BME280;51709;54.912;8.316;2023-02-12T06:56:12;103549.41;;;6.06;87.97
65131;BME280;51709;54.912;8.316;2023-02-12T07:01:32;103556.44;;;6.12;87.84
65131;BME280;51709;54.912;8.316;2023-02-12T07:06:53;103568.16;;;6.07;88.06
65131;BME280;51709;54.912;8.316;2023-02-12T07:12:14;103586.06;;;6.08;88.33
65131;BME280;51709;54.912;8.316;2023-02-12T07:17:34;103581.91;;;6.10;88.11
65131;BME280;51709;54.912;8.316;2023-02-12T07:22:55;103593.84;;;6.11;88.04
65131;BME280;51709;54.912;8.316;2023-02-12T07:28:16;103606.72;;;6.14;87.93
65131;BME280;51709;54.912;8.316;2023-02-12T07:33:37;103605.84;;;6.14;87.56
65131;BME280;51709;54.912;8.316;2023-02-12T07:38:59;103609.81;;;6.07;87.45
65131;BME280;51709;54.912;8.316;2023-02-12T07:44:23;103627.75;;;6.09;87.42
65131;BME280;51709;54.912;8.316;2023-02-12T07:49:44;103628.78;;;6.14;87.10
65131;BME280;51709;54.912;8.316;2023-02-12T07:55:08;103639.41;;;6.04;87.09
65131;BME280;51709;54.912;8.316;2023-02-12T08:00:29;103640.16;;;6.01;87.21
65131;BME280;51709;54.912;8.316;2023-02-12T08:05:49;103646.69;;;5.96;87.37
65131;BME280;51709;54.912;8.316;2023-02-12T08:11:11;103646.03;;;6.00;87.34
65131;BME280;51709;54.912;8.316;2023-02-12T08:16:36;103638.53;;;6.03;87.01
65131;BME280;51709;54.912;8.316;2023-02-12T08:21:58;103647.19;;;6.07;87.07
65131;BME280;51709;54.912;8.316;2023-02-12T08:27:18;103662.53;;;6.08;87.14
65131;BME280;51709;54.912;8.316;2023-02-12T08:32:48;103658.44;;;6.12;87.12
65131;BME280;51709;54.912;8.316;2023-02-12T08:38:09;103659.84;;;6.25;86.88
65131;BME280;51709;54.912;8.316;2023-02-12T08:43:34;103665.75;;;6.24;86.71
65131;BME280;51709;54.912;8.316;2023-02-12T08:49:03;103670.25;;;6.29;86.70
65131;BME280;51709;54.912;8.316;2023-02-12T08:54:27;103671.63;;;6.42;86.53
65131;BME280;51709;54.912;8.316;2023-02-12T08:59:48;103680.16;;;6.43;86.51
65131;BME280;51709;54.912;8.316;2023-02-12T09:05:09;103677.00;;;6.48;86.41
65131;BME280;51709;54.912;8.316;2023-02-12T09:10:32;103684.72;;;6.50;86.40
65131;BME280;51709;54.912;8.316;2023-02-12T09:15:53;103685.47;;;6.47;86.50
65131;BME280;51709;54.912;8.316;2023-02-12T09:21:15;103684.03;;;6.54;86.59
65131;BME280;51709;54.912;8.316;2023-02-12T09:26:36;103693.59;;;6.58;86.30
65131;BME280;51709;54.912;8.316;2023-02-12T09:31:57;103685.50;;;6.69;86.26
65131;BME280;51709;54.912;8.316;2023-02-12T09:37:18;103694.06;;;6.71;86.18
65131;BME280;51709;54.912;8.316;2023-02-12T09:48:41;103695.72;;;6.69;86.46
65131;BME280;51709;54.912;8.316;2023-02-12T09:54:06;103690.84;;;6.75;86.30
65131;BME280;51709;54.912;8.316;2023-02-12T09:59:40;103694.19;;;6.74;86.21
65131;BME280;51709;54.912;8.316;2023-02-12T10:05:04;103702.47;;;6.68;86.37
65131;BME280;51709;54.912;8.316;2023-02-12T10:21:58;103690.81;;;6.54;86.67
65131;BME280;51709;54.912;8.316;2023-02-12T10:27:43;103695.53;;;6.44;87.09
65131;BME280;51709;54.912;8.316;2023-02-12T10:33:15;103687.69;;;6.40;87.12
65131;BME280;51709;54.912;8.316;2023-02-12T10:38:39;103682.16;;;6.50;87.04
65131;BME280;51709;54.912;8.316;2023-02-12T10:44:02;103684.09;;;6.56;86.74
65131;BME280;51709;54.912;8.316;2023-02-12T10:49:22;103691.84;;;6.57;86.66
65131;BME280;51709;54.912;8.316;2023-02-12T10:54:45;103676.59;;;6.59;86.62
65131;BME280;51709;54.912;8.316;2023-02-12T11:00:36;103677.94;;;6.72;86.52
65131;BME280;51709;54.912;8.316;2023-02-12T11:05:55;103683.94;;;6.72;86.46
65131;BME280;51709;54.912;8.316;2023-02-12T11:11:22;103681.19;;;6.68;86.61
65131;BME280;51709;54.912;8.316;2023-02-12T11:16:54;103675.16;;;6.87;86.30
65131;BME280;51709;54.912;8.316;2023-02-12T11:22:16;103671.47;;;7.01;86.04
65131;BME280;51709;54.912;8.316;2023-02-12T11:27:38;103677.75;;;7.09;86.04
65131;BME280;51709;54.912;8.316;2023-02-12T11:38:49;103675.75;;;7.02;85.94
65131;BME280;51709;54.912;8.316;2023-02-12T11:44:17;103671.91;;;6.91;86.47
65131;BME280;51709;54.912;8.316;2023-02-12T11:49:41;103667.13;;;6.77;86.68
65131;BME280;51709;54.912;8.316;2023-02-12T11:55:07;103660.78;;;6.68;86.72
65131;BME280;51709;54.912;8.316;2023-02-12T12:00:43;103668.16;;;6.61;87.08
65131;BME280;51709;54.912;8.316;2023-02-12T12:06:12;103671.44;;;6.57;87.24
65131;BME280;51709;54.912;8.316;2023-02-12T12:12:15;103654.28;;;6.55;87.27
65131;BME280;51709;54.912;8.316;2023-02-12T12:17:44;103660.28;;;6.55;87.06
65131;BME280;51709;54.912;8.316;2023-02-12T12:24:19;103645.78;;;6.54;87.20
65131;BME280;51709;54.912;8.316;2023-02-12T12:29:53;103641.47;;;6.53;87.07
65131;BME280;51709;54.912;8.316;2023-02-12T12:35:22;103635.13;;;6.65;86.72
65131;BME280;51709;54.912;8.316;2023-02-12T12:40:59;103634.28;;;6.64;86.70
65131;BME280;51709;54.912;8.316;2023-02-12T12:46:27;103627.09;;;6.76;86.64
65131;BME280;51709;54.912;8.316;2023-02-12T12:52:02;103626.84;;;6.70;86.72
65131;BME280;51709;54.912;8.316;2023-02-12T12:57:38;103621.13;;;6.76;86.78
65131;BME280;51709;54.912;8.316;2023-02-12T13:09:00;103618.06;;;6.85;86.60
65131;BME280;51709;54.912;8.316;2023-02-12T13:14:34;103605.84;;;6.77;86.62
65131;BME280;51709;54.912;8.316;2023-02-12T13:20:21;103611.53;;;6.70;86.92
65131;BME280;51709;54.912;8.316;2023-02-12T13:25:51;103606.31;;;6.67;86.86
65131;BME280;51709;54.912;8.316;2023-02-12T13:31:19;103607.19;;;6.68;87.00
65131;BME280;51709;54.912;8.316;2023-02-12T13:36:54;103616.28;;;6.61;87.18
65131;BME280;51709;54.912;8.316;2023-02-12T13:42:52;103604.19;;;6.57;87.20
65131;BME280;51709;54.912;8.316;2023-02-12T13:48:28;103597.44;;;6.57;86.90
65131;BME280;51709;54.912;8.316;2023-02-12T13:54:05;103609.25;;;6.55;87.10
65131;BME280;51709;54.912;8.316;2023-02-12T14:10:28;103603.34;;;6.56;87.10
65131;BME280;51709;54.912;8.316;2023-02-12T14:15:52;103596.50;;;6.55;87.14
65131;BME280;51709;54.912;8.316;2023-02-12T14:26:37;103594.75;;;6.54;86.99
65131;BME280;51709;54.912;8.316;2023-02-12T14:31:58;103597.22;;;6.53;87.14
65131;BME280;51709;54.912;8.316;2023-02-12T14:37:32;103592.81;;;6.48;87.07
65131;BME280;51709;54.912;8.316;2023-02-12T14:42:57;103596.34;;;6.52;87.21
65131;BME280;51709;54.912;8.316;2023-02-12T14:54:12;103608.88;;;6.46;87.16
65131;BME280;51709;54.912;8.316;2023-02-12T14:59:39;103614.78;;;6.45;87.22
65131;BME280;51709;54.912;8.316;2023-02-12T15:05:11;103606.06;;;6.40;87.47
65131;BME280;51709;54.912;8.316;2023-02-12T15:11:18;103612.84;;;6.39;87.46
65131;BME280;51709;54.912;8.316;2023-02-12T15:22:23;103609.22;;;6.34;87.53
65131;BME280;51709;54.912;8.316;2023-02-12T15:27:50;103616.13;;;6.37;87.50
65131;BME280;51709;54.912;8.316;2023-02-12T15:33:25;103617.78;;;6.35;87.62
65131;BME280;51709;54.912;8.316;2023-02-12T15:38:50;103616.94;;;6.36;87.53
65131;BME280;51709;54.912;8.316;2023-02-12T15:44:21;103618.44;;;6.30;87.70
65131;BME280;51709;54.912;8.316;2023-02-12T15:49:42;103613.28;;;6.29;87.67
65131;BME280;51709;54.912;8.316;2023-02-12T15:55:04;103628.50;;;6.27;87.76
65131;BME280;51709;54.912;8.316;2023-02-12T16:00:43;103629.19;;;6.23;87.80
65131;BME280;51709;54.912;8.316;2023-02-12T16:06:08;103627.50;;;6.24;87.81
65131;BME280;51709;54.912;8.316;2023-02-12T16:11:31;103629.19;;;6.23;87.78
65131;BME280;51709;54.912;8.316;2023-02-12T16:16:54;103630.00;;;6.22;87.72
65131;BME280;51709;54.912;8.316;2023-02-12T16:22:16;103646.81;;;6.19;87.73
65131;BME280;51709;54.912;8.316;2023-02-12T16:27:39;103638.31;;;6.18;88.08
65131;BME280;51709;54.912;8.316;2023-02-12T16:33:00;103650.41;;;6.22;87.76
65131;BME280;51709;54.912;8.316;2023-02-12T16:49:22;103661.94;;;6.14;87.80
65131;BME280;51709;54.912;8.316;2023-02-12T16:54:43;103661.22;;;6.16;87.87
65131;BME280;51709;54.912;8.316;2023-02-12T17:00:05;103664.47;;;6.14;87.89
65131;BME280;51709;54.912;8.316;2023-02-12T17:05:27;103666.19;;;6.13;87.87
65131;BME280;51709;54.912;8.316;2023-02-12T17:10:49;103668.53;;;6.09;88.02
65131;BME280;51709;54.912;8.316;2023-02-12T17:16:14;103674.69;;;6.14;87.88
65131;BME280;51709;54.912;8.316;2023-02-12T17:21:50;103685.69;;;6.13;87.82
65131;BME280;51709;54.912;8.316;2023-02-12T17:27:11;103691.72;;;6.15;87.78
65131;BME280;51709;54.912;8.316;2023-02-12T17:32:36;103686.44;;;6.10;87.92
65131;BME280;51709;54.912;8.316;2023-02-12T17:37:59;103684.69;;;6.09;87.90
65131;BME280;51709;54.912;8.316;2023-02-12T17:43:20;103685.38;;;6.05;87.82
65131;BME280;51709;54.912;8.316;2023-02-12T17:48:44;103692.34;;;6.09;87.86
65131;BME280;51709;54.912;8.316;2023-02-12T17:54:05;103708.56;;;6.11;87.83
65131;BME280;51709;54.912;8.316;2023-02-12T17:59:29;103694.75;;;6.06;87.90
65131;BME280;51709;54.912;8.316;2023-02-12T18:04:49;103700.13;;;6.12;87.78
65131;BME280;51709;54.912;8.316;2023-02-12T18:10:12;103696.78;;;6.13;87.96
65131;BME280;51709;54.912;8.316;2023-02-12T18:15:34;103704.69;;;6.20;87.72
65131;BME280;51709;54.912;8.316;2023-02-12T18:20:55;103700.59;;;6.23;87.64
65131;BME280;51709;54.912;8.316;2023-02-12T18:26:19;103693.97;;;6.27;87.74
65131;BME280;51709;54.912;8.316;2023-02-12T18:31:40;103687.31;;;6.30;87.61
65131;BME280;51709;54.912;8.316;2023-02-12T18:37:04;103698.34;;;6.31;87.65
65131;BME280;51709;54.912;8.316;2023-02-12T18:42:25;103690.66;;;6.29;87.78
65131;BME280;51709;54.912;8.316;2023-02-12T18:47:47;103688.25;;;6.32;87.47
65131;BME280;51709;54.912;8.316;2023-02-12T18:53:08;103686.50;;;6.31;87.39
65131;BME280;51709;54.912;8.316;2023-02-12T18:58:30;103678.91;;;6.33;87.51
65131;BME280;51709;54.912;8.316;2023-02-12T19:03:55;103686.50;;;6.31;87.46
65131;BME280;51709;54.912;8.316;2023-02-12T19:09:19;103688.25;;;6.32;87.53
65131;BME280;51709;54.912;8.316;2023-02-12T19:14:40;103690.28;;;6.41;87.36
65131;BME280;51709;54.912;8.316;2023-02-12T19:20:01;103691.63;;;6.53;87.00
65131;BME280;51709;54.912;8.316;2023-02-12T19:25:21;103691.56;;;6.51;87.10
65131;BME280;51709;54.912;8.316;2023-02-12T19:30:42;103676.13;;;6.48;87.08
65131;BME280;51709;54.912;8.316;2023-02-12T19:36:04;103678.81;;;6.51;86.79
65131;BME280;51709;54.912;8.316;2023-02-12T19:41:27;103677.16;;;6.52;86.83
65131;BME280;51709;54.912;8.316;2023-02-12T19:46:49;103676.25;;;6.51;86.81
65131;BME280;51709;54.912;8.316;2023-02-12T19:52:09;103682.34;;;6.55;86.78
65131;BME280;51709;54.912;8.316;2023-02-12T19:57:30;103699.28;;;6.53;86.66
65131;BME280;51709;54.912;8.316;2023-02-12T20:02:50;103686.50;;;6.53;86.67
65131;BME280;51709;54.912;8.316;2023-02-12T20:08:12;103685.72;;;6.54;86.57
65131;BME280;51709;54.912;8.316;2023-02-12T20:13:33;103682.28;;;6.53;86.34
65131;BME280;51709;54.912;8.316;2023-02-12T20:18:53;103685.00;;;6.56;86.26
65131;BME280;51709;54.912;8.316;2023-02-12T20:24:15;103689.06;;;6.53;86.34
65131;BME280;51709;54.912;8.316;2023-02-12T20:29:36;103680.56;;;6.52;86.29
65131;BME280;51709;54.912;8.316;2023-02-12T20:34:56;103690.91;;;6.55;86.08
65131;BME280;51709;54.912;8.316;2023-02-12T20:40:17;103678.50;;;6.65;85.58
65131;BME280;51709;54.912;8.316;2023-02-12T20:45:38;103692.25;;;6.68;85.67
65131;BME280;51709;54.912;8.316;2023-02-12T20:51:20;103695.53;;;6.64;85.60
65131;BME280;51709;54.912;8.316;2023-02-12T20:56:40;103701.66;;;6.69;85.46
65131;BME280;51709;54.912;8.316;2023-02-12T21:02:01;103698.97;;;6.66;85.38
65131;BME280;51709;54.912;8.316;2023-02-12T21:07:22;103706.59;;;6.65;85.33
65131;BME280;51709;54.912;8.316;2023-02-12T21:12:42;103698.97;;;6.66;85.27
65131;BME280;51709;54.912;8.316;2023-02-12T21:18:03;103703.91;;;6.61;85.23
65131;BME280;51709;54.912;8.316;2023-02-12T21:23:24;103691.13;;;6.61;85.16
65131;BME280;51709;54.912;8.316;2023-02-12T21:36:22;103694.31;;;6.56;84.85
65131;BME280;51709;54.912;8.316;2023-02-12T21:41:44;103706.06;;;6.52;85.06
65131;BME280;51709;54.912;8.316;2023-02-12T21:47:05;103700.09;;;6.52;85.13
65131;BME280;51709;54.912;8.316;2023-02-12T21:52:27;103694.88;;;6.48;85.14
65131;BME280;51709;54.912;8.316;2023-02-12T21:57:48;103706.00;;;6.51;84.92
65131;BME280;51709;54.912;8.316;2023-02-12T22:03:09;103694.44;;;6.59;84.73
65131;BME280;51709;54.912;8.316;2023-02-12T22:08:30;103692.84;;;6.61;84.39
65131;BME280;51709;54.912;8.316;2023-02-12T22:13:51;103685.97;;;6.60;84.35
65131;BME280;51709;54.912;8.316;2023-02-12T22:19:12;103688.16;;;6.51;84.50
65131;BME280;51709;54.912;8.316;2023-02-12T22:24:33;103680.75;;;6.57;84.36
65131;BME280;51709;54.912;8.316;2023-02-12T22:29:54;103681.72;;;6.60;84.09
65131;BME280;51709;54.912;8.316;2023-02-12T22:35:14;103700.22;;;6.55;84.00
65131;BME280;51709;54.912;8.316;2023-02-12T22:40:36;103696.00;;;6.55;84.03
65131;BME280;51709;54.912;8.316;2023-02-12T22:45:58;103691.13;;;6.61;83.78
65131;BME280;51709;54.912;8.316;2023-02-12T22:51:26;103689.16;;;6.54;83.61
65131;BME280;51709;54.912;8.316;2023-02-12T22:56:49;103691.50;;;6.50;83.72
65131;BME280;51709;54.912;8.316;2023-02-12T23:02:10;103696.66;;;6.51;83.54
65131;BME280;51709;54.912;8.316;2023-02-12T23:07:31;103695.53;;;6.44;83.48
65131;BME280;51709;54.912;8.316;2023-02-12T23:12:52;103690.50;;;6.46;83.42
65131;BME280;51709;54.912;8.316;2023-02-12T23:18:13;103686.31;;;6.48;83.20
65131;BME280;51709;54.912;8.316;2023-02-12T23:23:36;103682.09;;;6.48;82.93
65131;BME280;51709;54.912;8.316;2023-02-12T23:28:57;103673.50;;;6.46;82.89
65131;BME280;51709;54.912;8.316;2023-02-12T23:34:18;103677.75;;;6.46;82.91
65131;BME280;51709;54.912;8.316;2023-02-12T23:39:38;103670.28;;;6.51;82.83
65131;BME280;51709;54.912;8.316;2023-02-12T23:44:59;103672.75;;;6.49;82.62
65131;BME280;51709;54.912;8.316;2023-02-12T23:50:19;103668.47;;;6.48;82.53
65131;BME280;51709;54.912;8.316;2023-02-12T23:55:40;103665.00;;;6.46;82.49
